Time;durP1;ratioP1;P1;durP2;ratioP2;P2;SDS_P1;SDS_P2;PMS_P1;PMS_P2;Temp;Humidity;BMP_temperature;BMP_pressure;BME280_temperature;BME280_humidity;BME280_pressure;Samples;Min_cycle;Max_cycle;Signal;HPM_P1;HPM_P2
2024/01/28 00:00:39;;;;;;;;;;;;;;;16.91;100.00;101255.03;6216144;23;19939;-82
2024/01/28 00:03:07;;;;;;;;;;;;;;;16.89;100.00;101258.50;6219481;23;19959;-84
2024/01/28 00:05:36;;;;;;;;;;;;;;;16.89;100.00;101259.38;6217396;23;19922;-85
2024/01/28 00:08:18;;;;;;;;;;;;;;;16.87;100.00;101266.31;6216489;23;20451;-84
2024/01/28 00:10:46;;;;;;;;;;;;;;;16.84;100.00;101271.53;6216189;23;20354;-83
2024/01/28 00:13:17;;;;;;;;;;;;;;;16.78;100.00;101271.41;6211279;23;19950;-85
2024/01/28 00:15:50;;;;;;;;;;;;;;;16.78;100.00;101281.84;6212275;23;19919;-84
2024/01/28 00:18:18;;;;;;;;;;;;;;;16.74;100.00;101272.22;6212078;23;20328;-86
2024/01/28 00:20:47;;;;;;;;;;;;;;;16.67;100.00;101278.22;6213790;23;19923;-82
2024/01/28 00:23:17;;;;;;;;;;;;;;;16.59;100.00;101277.28;6213676;23;19991;-83
2024/01/28 00:25:47;;;;;;;;;;;;;;;16.53;100.00;101276.31;6214289;23;19966;-82
2024/01/28 00:28:18;;;;;;;;;;;;;;;16.50;100.00;101280.63;6214234;23;19931;-82
2024/01/28 00:30:46;;;;;;;;;;;;;;;16.47;100.00;101273.63;6212841;23;20387;-82
2024/01/28 00:33:14;;;;;;;;;;;;;;;16.42;100.00;101282.25;6215322;23;19971;-82
2024/01/28 00:35:42;;;;;;;;;;;;;;;16.38;100.00;101285.66;6212649;23;19943;-82
2024/01/28 00:38:17;;;;;;;;;;;;;;;16.31;100.00;101285.59;6215312;23;19967;-83
2024/01/28 00:40:46;;;;;;;;;;;;;;;16.27;100.00;101277.69;6213877;23;20287;-82
2024/01/28 00:43:14;;;;;;;;;;;;;;;16.18;100.00;101293.22;6213260;23;20209;-83
2024/01/28 00:45:42;;;;;;;;;;;;;;;16.18;100.00;101288.00;6214411;23;19919;-83
2024/01/28 00:48:11;;;;;;;;;;;;;;;16.18;100.00;101282.78;6215152;23;19920;-84
2024/01/28 00:50:43;;;;;;;;;;;;;;;16.15;100.00;101287.94;6214567;23;19987;-82
2024/01/28 00:53:13;;;;;;;;;;;;;;;16.13;100.00;101288.81;6214868;23;19947;-83
2024/01/28 00:55:41;;;;;;;;;;;;;;;16.08;100.00;101285.25;6214868;23;19919;-84
2024/01/28 00:58:12;;;;;;;;;;;;;;;16.05;100.00;101287.81;6215622;23;20023;-83
2024/01/28 01:00:41;;;;;;;;;;;;;;;16.04;100.00;101291.28;6214695;23;20014;-83
2024/01/28 01:03:09;;;;;;;;;;;;;;;16.05;100.00;101286.94;6211347;23;19920;-82
2024/01/28 01:06:04;;;;;;;;;;;;;;;16.02;100.00;101286.91;6213143;23;19916;-84
2024/01/28 01:08:32;;;;;;;;;;;;;;;15.96;100.00;101298.09;6213579;23;19916;-81
2024/01/28 01:11:05;;;;;;;;;;;;;;;15.98;100.00;101285.94;6214469;23;20396;-81
2024/01/28 01:13:40;;;;;;;;;;;;;;;15.98;100.00;101293.78;6210662;23;19974;-80
2024/01/28 01:16:08;;;;;;;;;;;;;;;15.99;100.00;101292.94;6210778;23;19916;-82
2024/01/28 01:18:36;;;;;;;;;;;;;;;15.98;100.00;101291.19;6212903;23;19916;-82
2024/01/28 01:21:04;;;;;;;;;;;;;;;15.99;100.00;101290.34;6214651;23;20367;-81
2024/01/28 01:23:32;;;;;;;;;;;;;;;15.94;100.00;101284.16;6214830;23;19964;-81
2024/01/28 01:26:00;;;;;;;;;;;;;;;15.95;100.00;101295.50;6213910;23;19952;-81
2024/01/28 01:28:31;;;;;;;;;;;;;;;15.96;100.00;101292.88;6214640;23;19999;-81
2024/01/28 01:31:01;;;;;;;;;;;;;;;15.94;100.00;101286.75;6214421;23;20319;-81
2024/01/28 01:33:29;;;;;;;;;;;;;;;15.94;100.00;101288.50;6215372;23;19916;-82
2024/01/28 01:35:57;;;;;;;;;;;;;;;15.94;100.00;101284.16;6215709;23;19920;-81
2024/01/28 01:38:32;;;;;;;;;;;;;;;15.95;100.00;101285.03;6213058;23;19924;-81
2024/01/28 01:41:00;;;;;;;;;;;;;;;15.96;100.00;101277.22;6213703;23;19916;-82
2024/01/28 01:43:28;;;;;;;;;;;;;;;15.97;100.00;101278.13;6212555;23;19915;-83
2024/01/28 01:45:56;;;;;;;;;;;;;;;15.95;100.00;101272.88;6216296;23;19920;-82
2024/01/28 01:48:31;;;;;;;;;;;;;;;15.96;100.00;101277.22;6216189;23;19920;-82
2024/01/28 01:50:59;;;;;;;;;;;;;;;15.95;100.00;101275.47;6216270;23;19923;-81
2024/01/28 01:53:27;;;;;;;;;;;;;;;15.97;100.00;101278.13;6215383;23;19926;-82
2024/01/28 01:55:55;;;;;;;;;;;;;;;15.99;100.00;101276.38;6223937;22;19961;-82
2024/01/28 01:58:24;;;;;;;;;;;;;;;15.99;100.00;101272.06;6242374;22;19923;-82
2024/01/28 02:00:59;;;;;;;;;;;;;;;15.98;100.00;101270.28;6242809;22;19923;-83
2024/01/28 02:03:29;;;;;;;;;;;;;;;15.93;100.00;101277.19;6242198;22;19915;-82
2024/01/28 02:05:56;;;;;;;;;;;;;;;15.93;100.00;101271.97;6240460;22;19919;-83
2024/01/28 02:08:24;;;;;;;;;;;;;;;15.93;100.00;101277.19;6237418;22;19943;-82
2024/01/28 02:10:54;;;;;;;;;;;;;;;15.91;100.00;101274.53;6237385;23;19926;-82
2024/01/28 02:13:22;;;;;;;;;;;;;;;15.86;100.00;101280.56;6234370;23;19908;-83
2024/01/28 02:15:50;;;;;;;;;;;;;;;15.80;100.00;101285.66;6229461;23;19920;-83
2024/01/28 02:18:19;;;;;;;;;;;;;;;15.72;100.00;101279.44;6210451;23;20348;-87
2024/01/28 02:21:11;;;;;;;;;;;;;;;15.68;100.00;101276.75;6214975;23;19939;-84
2024/01/28 02:26:37;;;;;;;;;;;;;;;15.53;100.00;101273.88;6187881;23;19922;-83
2024/01/28 02:29:19;;;;;;;;;;;;;;;15.47;100.00;101279.00;6214225;23;19967;-83
2024/01/28 02:31:48;;;;;;;;;;;;;;;15.45;100.00;101280.69;6213306;23;20366;-85
2024/01/28 02:34:36;;;;;;;;;;;;;;;15.45;100.00;101281.56;6216586;23;19919;-84
2024/01/28 02:37:04;;;;;;;;;;;;;;;15.43;100.00;101269.34;6213902;23;19923;-82
2024/01/28 02:39:35;;;;;;;;;;;;;;;15.42;100.00;101272.81;6214849;23;19916;-82
2024/01/28 02:42:33;;;;;;;;;;;;;;;15.40;100.00;101270.19;6216072;23;19922;-84
2024/01/28 02:45:05;;;;;;;;;;;;;;;15.36;100.00;101270.09;6210932;23;19920;-83
2024/01/28 02:47:36;;;;;;;;;;;;;;;15.33;100.00;101270.91;6216466;23;19939;-84
2024/01/28 02:50:10;;;;;;;;;;;;;;;15.33;100.00;101277.88;6215219;23;19916;-83
2024/01/28 02:52:58;;;;;;;;;;;;;;;15.33;100.00;101272.66;6214604;23;19916;-81
2024/01/28 02:55:41;;;;;;;;;;;;;;;15.28;100.00;101270.84;6214576;23;19920;-82
2024/01/28 02:58:31;;;;;;;;;;;;;;;15.31;100.00;101271.75;6213292;23;19916;-82
2024/01/28 03:01:00;;;;;;;;;;;;;;;15.34;100.00;101269.19;6199739;23;19998;-83
2024/01/28 03:03:31;;;;;;;;;;;;;;;15.38;100.00;101276.22;6216759;23;19923;-81
2024/01/28 03:05:59;;;;;;;;;;;;;;;15.40;100.00;101274.53;6214749;23;19916;-81
2024/01/28 03:08:27;;;;;;;;;;;;;;;15.39;100.00;101275.34;6218255;23;19919;-81
2024/01/28 03:10:54;;;;;;;;;;;;;;;15.39;100.00;101275.34;6215588;23;19926;-81
2024/01/28 03:13:22;;;;;;;;;;;;;;;15.40;100.00;101279.72;6213256;23;19926;-81
2024/01/28 03:15:54;;;;;;;;;;;;;;;15.40;100.00;101282.34;6212761;23;19981;-81
2024/01/28 03:18:24;;;;;;;;;;;;;;;15.44;100.00;101294.59;6214726;23;20387;-81
2024/01/28 03:20:52;;;;;;;;;;;;;;;15.48;100.00;101293.78;6217143;23;19943;-81
2024/01/28 03:23:20;;;;;;;;;;;;;;;15.52;100.00;101302.53;6216849;23;19916;-81
2024/01/28 03:25:49;;;;;;;;;;;;;;;15.55;100.00;101287.81;6217255;23;20245;-82
2024/01/28 03:28:20;;;;;;;;;;;;;;;15.57;100.00;101291.31;6216655;23;19923;-83
2024/01/28 03:30:47;;;;;;;;;;;;;;;15.57;100.00;101299.16;6217793;23;19991;-83
2024/01/28 03:33:15;;;;;;;;;;;;;;;15.57;100.00;101299.16;6217874;23;19922;-83
2024/01/28 03:35:45;;;;;;;;;;;;;;;15.58;100.00;101294.84;6217125;23;19951;-81
2024/01/28 03:38:13;;;;;;;;;;;;;;;15.59;100.00;101296.59;6214739;23;19919;-82
2024/01/28 03:40:43;;;;;;;;;;;;;;;15.60;100.00;101306.16;6216082;23;19916;-83
2024/01/28 03:43:11;;;;;;;;;;;;;;;15.59;100.00;101300.06;6217101;23;19990;-81
2024/01/28 03:45:39;;;;;;;;;;;;;;;15.59;100.00;101291.38;6213803;23;19920;-81
2024/01/28 03:48:08;;;;;;;;;;;;;;;15.58;100.00;101287.88;6214061;23;19920;-80
2024/01/28 03:53:18;;;;;;;;;;;;;;;15.50;100.00;101286.84;6211788;23;19920;-82
2024/01/28 03:55:47;;;;;;;;;;;;;;;15.45;100.00;101288.50;6212456;23;20303;-81
2024/01/28 03:58:15;;;;;;;;;;;;;;;15.43;100.00;101295.44;6213568;23;20320;-81
2024/01/28 04:00:43;;;;;;;;;;;;;;;15.41;100.00;101291.91;6214544;23;19946;-81
2024/01/28 04:03:10;;;;;;;;;;;;;;;15.38;100.00;101299.69;6214350;23;19930;-81
2024/01/28 04:05:38;;;;;;;;;;;;;;;15.33;100.00;101297.00;6213597;23;19920;-81
2024/01/28 04:08:10;;;;;;;;;;;;;;;15.28;100.00;101304.72;6212259;23;19919;-81
2024/01/28 04:10:39;;;;;;;;;;;;;;;15.26;100.00;101303.81;6212054;23;20479;-81
2024/01/28 04:13:07;;;;;;;;;;;;;;;15.24;100.00;101295.09;6208945;23;19926;-81
2024/01/28 04:15:35;;;;;;;;;;;;;;;15.22;100.00;101291.56;6209206;23;19920;-81
2024/01/28 04:18:05;;;;;;;;;;;;;;;15.21;100.00;101279.41;6211619;23;19922;-82
2024/01/28 04:20:32;;;;;;;;;;;;;;;15.20;100.00;101276.75;6215798;23;19920;-82
2024/01/28 04:23:01;;;;;;;;;;;;;;;15.22;100.00;101275.94;6213466;23;19995;-82
2024/01/28 04:25:33;;;;;;;;;;;;;;;15.23;100.00;101282.91;6214110;23;19916;-82
2024/01/28 04:28:02;;;;;;;;;;;;;;;15.21;100.00;101283.72;6214470;23;19920;-81
2024/01/28 04:30:30;;;;;;;;;;;;;;;15.19;100.00;101295.88;6211688;23;20411;-81
2024/01/28 04:32:58;;;;;;;;;;;;;;;15.14;100.00;101294.88;6214223;23;19919;-81
2024/01/28 04:35:26;;;;;;;;;;;;;;;15.10;100.00;101286.13;6212851;23;19967;-82
2024/01/28 04:38:01;;;;;;;;;;;;;;;15.02;100.00;101275.53;6212239;23;19970;-81
2024/01/28 04:40:29;;;;;;;;;;;;;;;15.01;100.00;101279.00;6213554;23;19962;-82
2024/01/28 04:42:57;;;;;;;;;;;;;;;15.04;100.00;101280.78;6213670;23;19923;-82
2024/01/28 04:45:27;;;;;;;;;;;;;;;15.04;100.00;101275.56;6215035;23;19916;-81
2024/01/28 04:47:57;;;;;;;;;;;;;;;15.01;100.00;101272.91;6213197;23;19926;-82
2024/01/28 04:50:25;;;;;;;;;;;;;;;15.00;100.00;101273.75;6211811;23;19919;-81
2024/01/28 04:52:53;;;;;;;;;;;;;;;14.99;100.00;101272.88;6211026;23;19923;-81
2024/01/28 04:55:21;;;;;;;;;;;;;;;15.01;100.00;101275.53;6212681;23;19919;-81
2024/01/28 04:57:49;;;;;;;;;;;;;;;15.04;100.00;101280.78;6213278;23;20344;-81
2024/01/28 05:00:17;;;;;;;;;;;;;;;15.08;100.00;101283.47;6211772;23;19955;-81
2024/01/28 05:02:50;;;;;;;;;;;;;;;15.11;100.00;101277.44;6211157;23;19920;-81
2024/01/28 05:05:18;;;;;;;;;;;;;;;15.13;100.00;101280.09;6211247;23;19916;-81
2024/01/28 05:07:46;;;;;;;;;;;;;;;15.16;100.00;101270.59;6212371;23;19922;-82
2024/01/28 05:10:14;;;;;;;;;;;;;;;15.18;100.00;101266.28;6212237;23;20332;-81
2024/01/28 05:12:48;;;;;;;;;;;;;;;15.20;100.00;101274.16;6209554;23;20316;-82
2024/01/28 05:15:16;;;;;;;;;;;;;;;15.20;100.00;101272.41;6207935;23;20006;-85
2024/01/28 05:17:45;;;;;;;;;;;;;;;15.21;100.00;101263.75;6206826;23;19919;-82
2024/01/28 05:20:15;;;;;;;;;;;;;;;15.23;100.00;101267.28;6213394;23;19987;-82
2024/01/28 05:22:45;;;;;;;;;;;;;;;15.24;100.00;101278.56;6209079;23;20011;-82
2024/01/28 05:25:16;;;;;;;;;;;;;;;15.25;100.00;101273.38;6210587;23;19978;-82
2024/01/28 05:27:45;;;;;;;;;;;;;;;15.25;100.00;101259.47;6208640;23;19922;-81
2024/01/28 05:30:13;;;;;;;;;;;;;;;15.26;100.00;101266.44;6209342;23;19923;-82
2024/01/28 05:32:41;;;;;;;;;;;;;;;15.20;100.00;101272.41;6210875;23;19916;-81
2024/01/28 05:35:18;;;;;;;;;;;;;;;15.15;100.00;101273.19;6212107;23;19920;-82
2024/01/28 05:37:51;;;;;;;;;;;;;;;15.11;100.00;101261.81;6213338;23;20256;-82
2024/01/28 05:40:19;;;;;;;;;;;;;;;15.08;100.00;101256.53;6213530;23;19930;-82
2024/01/28 05:42:47;;;;;;;;;;;;;;;15.10;100.00;101253.97;6214498;23;19926;-83
2024/01/28 05:45:15;;;;;;;;;;;;;;;15.11;100.00;101266.16;6213617;23;19995;-82
2024/01/28 05:47:43;;;;;;;;;;;;;;;15.12;100.00;101271.41;6214562;23;19950;-81
2024/01/28 05:50:12;;;;;;;;;;;;;;;15.12;100.00;101250.56;6214323;23;19915;-81
2024/01/28 05:52:40;;;;;;;;;;;;;;;15.12;100.00;101253.16;6214020;23;20019;-81
2024/01/28 05:55:10;;;;;;;;;;;;;;;15.07;100.00;101246.97;6214115;23;19916;-82
2024/01/28 05:57:39;;;;;;;;;;;;;;;15.06;100.00;101242.59;6213638;23;20296;-82
2024/01/28 06:00:08;;;;;;;;;;;;;;;15.06;100.00;101243.47;6213607;23;19916;-82
2024/01/28 06:02:36;;;;;;;;;;;;;;;15.06;100.00;101240.88;6213050;23;19916;-82
2024/01/28 06:05:04;;;;;;;;;;;;;;;15.07;100.00;101240.03;6214390;23;19923;-82
2024/01/28 06:07:32;;;;;;;;;;;;;;;15.07;100.00;101239.13;6214068;23;20253;-82
2024/01/28 06:10:00;;;;;;;;;;;;;;;15.07;100.00;101234.81;6213626;23;19923;-81
2024/01/28 06:12:32;;;;;;;;;;;;;;;15.08;100.00;101227.88;6211538;23;19935;-82
2024/01/28 06:15:04;;;;;;;;;;;;;;;15.07;100.00;101228.72;6209910;23;19920;-81
2024/01/28 06:17:32;;;;;;;;;;;;;;;15.06;100.00;101229.56;6210465;23;19919;-81
2024/01/28 06:20:00;;;;;;;;;;;;;;;15.07;100.00;101228.72;6214234;23;19916;-82
2024/01/28 06:22:30;;;;;;;;;;;;;;;15.09;100.00;101224.41;6214099;23;19919;-84
2024/01/28 06:24:59;;;;;;;;;;;;;;;15.07;100.00;101219.19;6214403;23;19951;-81
2024/01/28 06:27:27;;;;;;;;;;;;;;;15.08;100.00;101226.16;6213762;23;19916;-81
2024/01/28 06:29:56;;;;;;;;;;;;;;;15.10;100.00;101227.91;6214335;23;19916;-81
2024/01/28 06:32:27;;;;;;;;;;;;;;;15.12;100.00;101220.97;6213971;23;19915;-80
2024/01/28 06:34:57;;;;;;;;;;;;;;;15.12;100.00;101223.59;6214105;23;19916;-80
2024/01/28 06:37:26;;;;;;;;;;;;;;;15.12;100.00;101216.66;6214774;23;19915;-81
2024/01/28 06:39:54;;;;;;;;;;;;;;;15.11;100.00;101217.50;6214410;23;19915;-81
2024/01/28 06:42:22;;;;;;;;;;;;;;;15.13;100.00;101220.16;6213820;23;19926;-81
2024/01/28 06:44:49;;;;;;;;;;;;;;;15.14;100.00;101217.56;6213732;23;19994;-81
2024/01/28 06:47:21;;;;;;;;;;;;;;;15.13;100.00;101221.03;6213843;23;19915;-81
2024/01/28 06:49:50;;;;;;;;;;;;;;;15.12;100.00;101215.75;6213905;23;19919;-81
2024/01/28 06:52:17;;;;;;;;;;;;;;;15.13;100.00;101218.41;6214127;23;19920;-81
2024/01/28 06:54:45;;;;;;;;;;;;;;;15.14;100.00;101214.97;6213865;23;19916;-81
2024/01/28 06:57:13;;;;;;;;;;;;;;;15.15;100.00;101211.50;6213811;23;19919;-81
2024/01/28 06:59:44;;;;;;;;;;;;;;;15.14;100.00;101220.19;6214121;23;20002;-81
2024/01/28 07:02:12;;;;;;;;;;;;;;;15.14;100.00;101207.16;6213830;23;19927;-81
2024/01/28 07:04:42;;;;;;;;;;;;;;;15.15;100.00;101208.91;6213919;23;20427;-81
2024/01/28 07:07:10;;;;;;;;;;;;;;;15.14;100.00;101209.75;6213840;23;19920;-82
2024/01/28 07:09:40;;;;;;;;;;;;;;;15.11;100.00;101209.69;6214075;23;19983;-81
2024/01/28 07:12:08;;;;;;;;;;;;;;;15.11;100.00;101212.28;6213293;23;20316;-81
2024/01/28 07:14:36;;;;;;;;;;;;;;;15.12;100.00;101210.56;6208969;23;20255;-80
2024/01/28 07:17:04;;;;;;;;;;;;;;;15.10;100.00;101215.75;6209902;23;19923;-81
2024/01/28 07:19:32;;;;;;;;;;;;;;;15.08;100.00;101210.50;6213514;23;20363;-80
2024/01/28 07:22:03;;;;;;;;;;;;;;;15.08;100.00;101215.72;6213959;23;19924;-81
2024/01/28 07:24:31;;;;;;;;;;;;;;;15.08;100.00;101220.94;6214064;23;19924;-80
2024/01/28 07:26:59;;;;;;;;;;;;;;;15.08;100.00;101222.66;6213978;23;19920;-81
2024/01/28 07:29:27;;;;;;;;;;;;;;;15.05;100.00;101214.81;6214075;23;19916;-81
2024/01/28 07:31:54;;;;;;;;;;;;;;;15.03;100.00;101216.50;6214390;23;19916;-81
2024/01/28 07:34:23;;;;;;;;;;;;;;;15.01;100.00;101213.84;6214344;23;19927;-81
2024/01/28 07:36:54;;;;;;;;;;;;;;;15.01;100.00;101205.16;6214736;23;19919;-81
2024/01/28 07:39:23;;;;;;;;;;;;;;;15.03;100.00;101206.06;6214523;23;19966;-80
2024/01/28 07:41:51;;;;;;;;;;;;;;;15.02;100.00;101199.97;6214555;23;20263;-81
2024/01/28 07:44:19;;;;;;;;;;;;;;;15.02;100.00;101196.47;6213926;23;19923;-80
2024/01/28 07:46:51;;;;;;;;;;;;;;;15.01;100.00;101197.34;6215103;23;20003;-81
2024/01/28 07:49:19;;;;;;;;;;;;;;;14.96;100.00;101199.88;6243393;22;19904;-80
2024/01/28 07:51:47;;;;;;;;;;;;;;;14.92;100.00;101191.97;6244604;22;19920;-81
2024/01/28 07:54:15;;;;;;;;;;;;;;;14.93;100.00;101193.72;6231074;23;20294;-81
2024/01/28 07:56:44;;;;;;;;;;;;;;;14.94;100.00;101185.94;6215881;23;20232;-81
2024/01/28 07:59:13;;;;;;;;;;;;;;;14.96;100.00;101193.78;6215564;23;19916;-81
2024/01/28 08:01:44;;;;;;;;;;;;;;;14.95;100.00;101194.63;6215621;23;19916;-81
2024/01/28 08:04:11;;;;;;;;;;;;;;;14.96;100.00;101201.59;6215454;23;19915;-81
2024/01/28 08:06:40;;;;;;;;;;;;;;;14.98;100.00;101199.88;6214949;23;20011;-81
2024/01/28 08:09:08;;;;;;;;;;;;;;;14.99;100.00;101196.44;6215490;23;19916;-81
2024/01/28 08:11:36;;;;;;;;;;;;;;;14.98;100.00;101187.75;6215448;23;19995;-81
2024/01/28 08:14:05;;;;;;;;;;;;;;;14.97;100.00;101182.50;6211163;23;19986;-81
2024/01/28 08:16:33;;;;;;;;;;;;;;;14.93;100.00;101183.28;6212018;23;19927;-81
2024/01/28 08:19:04;;;;;;;;;;;;;;;14.93;100.00;101178.06;6214150;23;19920;-81
2024/01/28 08:21:32;;;;;;;;;;;;;;;14.93;100.00;101184.16;6214703;23;19950;-81
2024/01/28 08:24:02;;;;;;;;;;;;;;;14.92;100.00;101176.34;6215356;23;19955;-81
2024/01/28 08:26:30;;;;;;;;;;;;;;;14.88;100.00;101171.03;6214868;23;19931;-81
2024/01/28 08:28:58;;;;;;;;;;;;;;;14.86;100.00;101167.53;6215571;23;19915;-80
2024/01/28 08:31:28;;;;;;;;;;;;;;;14.82;100.00;101164.84;6214747;23;19916;-81
2024/01/28 08:33:56;;;;;;;;;;;;;;;14.79;100.00;101154.38;6215038;23;20355;-81
2024/01/28 08:36:24;;;;;;;;;;;;;;;14.80;100.00;101154.41;6214086;23;19916;-81
2024/01/28 08:38:52;;;;;;;;;;;;;;;14.81;100.00;101161.38;6214430;23;19927;-80
2024/01/28 08:41:21;;;;;;;;;;;;;;;14.80;100.00;101161.34;6214201;23;19920;-79
2024/01/28 08:43:49;;;;;;;;;;;;;;;14.78;100.00;101158.72;6214928;23;19916;-80
2024/01/28 08:46:17;;;;;;;;;;;;;;;14.79;100.00;101164.78;6215737;23;19922;-80
2024/01/28 08:48:47;;;;;;;;;;;;;;;14.80;100.00;101153.53;6215226;23;19916;-80
2024/01/28 08:51:17;;;;;;;;;;;;;;;14.82;100.00;101163.13;6215151;23;19916;-80
2024/01/28 08:53:46;;;;;;;;;;;;;;;14.86;100.00;101159.72;6215206;23;19923;-80
2024/01/28 08:56:14;;;;;;;;;;;;;;;14.89;100.00;101156.31;6214769;23;19923;-80
2024/01/28 08:58:42;;;;;;;;;;;;;;;14.91;100.00;101158.94;6214846;23;19916;-80
2024/01/28 09:01:13;;;;;;;;;;;;;;;14.92;100.00;101161.56;6214723;23;19920;-80
2024/01/28 09:03:41;;;;;;;;;;;;;;;14.93;100.00;101168.53;6214981;23;19974;-80
2024/01/28 09:06:10;;;;;;;;;;;;;;;14.94;100.00;101170.28;6215020;23;19991;-80
2024/01/28 09:08:38;;;;;;;;;;;;;;;14.97;100.00;101172.06;6214879;23;19995;-80
2024/01/28 09:11:08;;;;;;;;;;;;;;;14.98;100.00;101181.63;6214957;23;19920;-80
2024/01/28 09:13:36;;;;;;;;;;;;;;;14.99;100.00;101178.19;6211144;23;19920;-80
2024/01/28 09:16:06;;;;;;;;;;;;;;;14.99;100.00;101188.63;6210815;23;20365;-81
2024/01/28 09:18:34;;;;;;;;;;;;;;;14.98;100.00;101194.66;6212766;23;19922;-81
2024/01/28 09:21:03;;;;;;;;;;;;;;;14.97;100.00;101191.19;6214710;23;19916;-81
2024/01/28 09:23:33;;;;;;;;;;;;;;;14.94;100.00;101193.75;6214883;23;19966;-81
2024/01/28 09:26:01;;;;;;;;;;;;;;;14.94;100.00;101195.47;6214659;23;19923;-81
2024/01/28 09:28:31;;;;;;;;;;;;;;;14.94;100.00;101201.56;6214757;23;19916;-80
2024/01/28 09:31:00;;;;;;;;;;;;;;;14.93;100.00;101198.91;6214653;23;19916;-81
2024/01/28 09:33:28;;;;;;;;;;;;;;;14.93;100.00;101211.94;6214256;23;19916;-81
2024/01/28 09:35:56;;;;;;;;;;;;;;;14.91;100.00;101204.09;6214633;23;19915;-81
2024/01/28 09:38:26;;;;;;;;;;;;;;;14.94;100.00;101204.16;6214486;23;19919;-80
2024/01/28 09:40:56;;;;;;;;;;;;;;;14.94;100.00;101209.38;6214515;23;19923;-80
2024/01/28 09:43:28;;;;;;;;;;;;;;;14.94;100.00;101212.00;6214616;23;19920;-79
2024/01/28 09:45:56;;;;;;;;;;;;;;;14.90;100.00;101220.59;6214316;23;20346;-80
2024/01/28 09:48:26;;;;;;;;;;;;;;;14.91;100.00;101211.91;6214359;23;19926;-81
2024/01/28 09:50:57;;;;;;;;;;;;;;;14.92;100.00;101228.44;6214654;23;19991;-80
2024/01/28 09:53:25;;;;;;;;;;;;;;;14.92;100.00;101231.06;6214381;23;19916;-79
2024/01/28 09:55:52;;;;;;;;;;;;;;;14.92;100.00;101228.44;6214576;23;19920;-80
2024/01/28 09:58:23;;;;;;;;;;;;;;;14.88;100.00;101236.19;6214253;23;20134;-80
2024/01/28 10:00:51;;;;;;;;;;;;;;;14.90;100.00;101240.56;6214954;23;19923;-80
2024/01/28 10:03:21;;;;;;;;;;;;;;;14.91;100.00;101237.09;6214470;23;19954;-80
2024/01/28 10:05:49;;;;;;;;;;;;;;;14.90;100.00;101236.22;6214231;23;19927;-80
2024/01/28 10:08:17;;;;;;;;;;;;;;;14.89;100.00;101242.28;6213762;23;19991;-79
2024/01/28 10:10:46;;;;;;;;;;;;;;;14.90;100.00;101237.94;6213985;23;19922;-79
2024/01/28 10:13:16;;;;;;;;;;;;;;;14.87;100.00;101237.03;6211244;23;19920;-79
2024/01/28 10:15:54;;;;;;;;;;;;;;;14.89;100.00;101234.47;6210738;23;19923;-79
2024/01/28 10:18:23;;;;;;;;;;;;;;;14.88;100.00;101241.41;6211763;23;20255;-79
2024/01/28 10:20:51;;;;;;;;;;;;;;;14.90;100.00;101241.44;6214248;23;19920;-80
2024/01/28 10:23:19;;;;;;;;;;;;;;;14.90;100.00;101245.78;6214528;23;20313;-80
2024/01/28 10:25:47;;;;;;;;;;;;;;;14.88;100.00;101249.22;6214513;23;19945;-80
2024/01/28 10:28:15;;;;;;;;;;;;;;;14.90;100.00;101250.97;6214398;23;19919;-80
2024/01/28 10:30:43;;;;;;;;;;;;;;;14.91;100.00;101247.50;6213919;23;19915;-80
2024/01/28 10:33:12;;;;;;;;;;;;;;;14.92;100.00;101259.72;6214425;23;19915;-80
2024/01/28 10:35:41;;;;;;;;;;;;;;;14.90;100.00;101251.84;6214376;23;19995;-79
2024/01/28 10:38:13;;;;;;;;;;;;;;;14.92;100.00;101249.28;6214499;23;19915;-80
2024/01/28 10:40:45;;;;;;;;;;;;;;;14.90;100.00;101246.63;6212470;23;19916;-81
2024/01/28 10:43:15;;;;;;;;;;;;;;;14.92;100.00;101251.91;6214441;23;19915;-80
2024/01/28 10:45:44;;;;;;;;;;;;;;;14.95;100.00;101255.41;6213651;23;19947;-81
2024/01/28 10:48:18;;;;;;;;;;;;;;;14.97;100.00;101245.03;6214774;23;19982;-80
2024/01/28 10:50:46;;;;;;;;;;;;;;;14.98;100.00;101259.81;6213488;23;19920;-81
2024/01/28 10:53:15;;;;;;;;;;;;;;;14.96;100.00;101246.78;6214752;23;20012;-80
2024/01/28 10:55:46;;;;;;;;;;;;;;;14.98;100.00;101254.59;6213972;23;19915;-81
2024/01/28 10:58:14;;;;;;;;;;;;;;;14.97;100.00;101251.13;6214222;23;19916;-80
2024/01/28 11:00:42;;;;;;;;;;;;;;;14.97;100.00;101248.50;6214515;23;19992;-81
2024/01/28 11:03:10;;;;;;;;;;;;;;;14.99;100.00;101248.56;6213847;23;19916;-81
2024/01/28 11:05:40;;;;;;;;;;;;;;;15.00;100.00;101259.03;6214500;23;19919;-82
2024/01/28 11:08:11;;;;;;;;;;;;;;;15.02;100.00;101265.09;6213858;23;19916;-81
2024/01/28 11:10:39;;;;;;;;;;;;;;;15.05;100.00;101259.09;6213487;23;19916;-80
2024/01/28 11:13:07;;;;;;;;;;;;;;;15.07;100.00;101254.78;6211532;23;19919;-82
2024/01/28 11:15:35;;;;;;;;;;;;;;;15.11;100.00;101260.94;6210185;23;20344;-81
2024/01/28 11:18:03;;;;;;;;;;;;;;;15.13;100.00;101264.47;6211081;23;19998;-80
2024/01/28 11:20:32;;;;;;;;;;;;;;;15.15;100.00;101262.75;6215130;23;19923;-81
2024/01/28 11:23:04;;;;;;;;;;;;;;;15.14;100.00;101264.50;6216405;23;20026;-81
2024/01/28 11:25:33;;;;;;;;;;;;;;;15.16;100.00;101269.72;6216166;23;19920;-81
2024/01/28 11:28:02;;;;;;;;;;;;;;;15.12;100.00;101255.75;6215912;23;19927;-81
2024/01/28 11:30:30;;;;;;;;;;;;;;;15.12;100.00;101265.28;6216335;23;19959;-81
2024/01/28 11:32:59;;;;;;;;;;;;;;;15.11;100.00;101261.81;6215912;23;20314;-81
2024/01/28 11:35:26;;;;;;;;;;;;;;;15.10;100.00;101261.81;6216257;23;19922;-81
2024/01/28 11:37:56;;;;;;;;;;;;;;;15.10;100.00;101265.28;6216057;23;19922;-81
2024/01/28 11:40:31;;;;;;;;;;;;;;;15.10;100.00;101270.50;6215912;23;19938;-81
2024/01/28 11:43:01;;;;;;;;;;;;;;;15.10;100.00;101269.63;6215825;23;19916;-81
2024/01/28 11:45:29;;;;;;;;;;;;;;;15.09;100.00;101271.31;6215767;23;19915;-81
2024/01/28 11:47:57;;;;;;;;;;;;;;;15.09;100.00;101276.53;6215753;23;19916;-80
2024/01/28 11:50:25;;;;;;;;;;;;;;;15.12;100.00;101274.00;6215701;23;19944;-81
2024/01/28 11:52:53;;;;;;;;;;;;;;;15.12;100.00;101274.00;6215630;23;20039;-80
2024/01/28 11:55:23;;;;;;;;;;;;;;;15.15;100.00;101278.41;6215761;23;19954;-81
2024/01/28 11:57:53;;;;;;;;;;;;;;;15.16;100.00;101282.75;6215499;23;20077;-80
2024/01/28 12:00:21;;;;;;;;;;;;;;;15.17;100.00;101282.78;6215706;23;19915;-80
2024/01/28 12:02:49;;;;;;;;;;;;;;;15.17;100.00;101282.78;6215257;23;19916;-81
2024/01/28 12:05:17;;;;;;;;;;;;;;;15.21;100.00;101279.41;6212793;23;20346;-81
2024/01/28 12:07:44;;;;;;;;;;;;;;;15.23;100.00;101279.41;6215273;23;19939;-81
2024/01/28 12:10:15;;;;;;;;;;;;;;;15.20;100.00;101281.97;6215259;23;19923;-81
2024/01/28 12:12:43;;;;;;;;;;;;;;;15.19;100.00;101288.91;6212778;23;20332;-81
2024/01/28 12:15:13;;;;;;;;;;;;;;;15.16;100.00;101281.00;6211621;23;19924;-81
2024/01/28 12:17:42;;;;;;;;;;;;;;;15.15;100.00;101284.47;6211707;23;19966;-80
2024/01/28 12:20:20;;;;;;;;;;;;;;;15.16;100.00;101278.41;6215048;23;19922;-81
2024/01/28 12:22:48;;;;;;;;;;;;;;;15.15;100.00;101276.66;6215666;23;19923;-81
2024/01/28 12:25:20;;;;;;;;;;;;;;;15.15;100.00;101276.66;6215813;23;19920;-81
2024/01/28 12:27:48;;;;;;;;;;;;;;;15.14;100.00;101277.53;6215727;23;19929;-81
2024/01/28 12:30:21;;;;;;;;;;;;;;;15.14;100.00;101285.34;6215501;23;19919;-81
2024/01/28 12:32:52;;;;;;;;;;;;;;;15.14;100.00;101282.75;6215046;23;19991;-81
2024/01/28 12:35:19;;;;;;;;;;;;;;;15.11;100.00;101285.28;6215343;23;19916;-80
2024/01/28 12:37:47;;;;;;;;;;;;;;;15.10;100.00;101280.91;6215318;23;19927;-81
2024/01/28 12:40:15;;;;;;;;;;;;;;;15.09;100.00;101284.34;6215486;23;19922;-81
2024/01/28 12:42:43;;;;;;;;;;;;;;;15.07;100.00;101283.44;6215238;23;19923;-81
2024/01/28 12:45:11;;;;;;;;;;;;;;;15.06;100.00;101279.09;6214287;23;19916;-81